createdAt,value
2019-02-19T00:00:24.889Z,3.58
2019-02-19T00:02:53.213Z,2.92
2019-02-19T00:22:57.593Z,3.00
2019-02-19T00:25:25.868Z,3.87
2019-02-19T00:27:54.163Z,3.42
2019-02-19T00:30:22.416Z,4.12
2019-02-19T00:32:51.206Z,4.20
2019-02-19T00:35:19.534Z,3.62
2019-02-19T00:37:47.851Z,3.60
2019-02-19T00:40:16.153Z,2.87
2019-02-19T00:42:44.433Z,3.10
2019-02-19T00:45:16.709Z,2.92
2019-02-19T00:47:42.741Z,2.87
2019-02-19T00:50:11.032Z,4.83
2019-02-19T00:52:39.354Z,4.08
2019-02-19T00:55:07.635Z,3.15
2019-02-19T01:15:56.876Z,3.90
2019-02-19T01:18:25.144Z,5.22
2019-02-19T01:20:53.637Z,3.60
2019-02-19T01:23:21.899Z,6.97
2019-02-19T01:25:50.118Z,6.83
2019-02-19T01:28:18.416Z,3.90
2019-02-19T01:30:46.652Z,4.22
2019-02-19T01:33:14.891Z,3.17
2019-02-19T01:35:43.161Z,3.75
2019-02-19T01:38:11.394Z,3.75
2019-02-19T01:40:39.622Z,5.55
2019-02-19T01:43:08.171Z,4.20
2019-02-19T01:45:36.388Z,3.45
2019-02-19T01:48:04.637Z,2.67
2019-02-19T01:50:32.901Z,5.70
2019-02-19T01:53:01.144Z,4.80
2019-02-19T01:55:29.487Z,2.75
2019-02-19T01:57:57.742Z,2.67
2019-02-19T02:00:26.003Z,2.95
2019-02-19T02:02:54.236Z,2.52
2019-02-19T02:05:24.102Z,6.53
2019-02-19T02:07:52.517Z,3.90
2019-02-19T02:10:20.923Z,2.35
2019-02-19T02:12:49.169Z,2.80
2019-02-19T02:15:17.422Z,3.67
2019-02-19T02:17:45.689Z,2.83
2019-02-19T02:20:13.936Z,3.58
2019-02-19T02:22:42.170Z,2.90
2019-02-19T02:25:10.419Z,2.65
2019-02-19T02:27:39.021Z,2.95
2019-02-19T02:30:08.129Z,3.98
2019-02-19T02:32:36.341Z,5.33
2019-02-19T02:35:04.923Z,2.80
2019-02-19T02:37:33.323Z,2.40
2019-02-19T02:40:01.578Z,2.05
2019-02-19T02:42:29.841Z,2.80
2019-02-19T02:44:58.060Z,2.90
2019-02-19T02:47:26.341Z,3.08
2019-02-19T02:49:54.622Z,4.53
2019-02-19T02:52:22.883Z,5.60
2019-02-19T02:54:51.067Z,4.30
2019-02-19T02:57:19.303Z,3.52
2019-02-19T02:59:47.570Z,3.33
2019-02-19T03:02:15.797Z,4.42
2019-02-19T03:04:44.069Z,6.83
2019-02-19T03:07:16.664Z,6.10
2019-02-19T03:09:44.934Z,3.22
2019-02-19T03:12:13.225Z,4.95
2019-02-19T03:14:41.477Z,2.50
2019-02-19T03:17:09.895Z,3.62
2019-02-19T03:19:38.157Z,3.00
2019-02-19T03:22:06.411Z,3.80
2019-02-19T03:24:34.657Z,2.75
2019-02-19T03:27:02.960Z,3.72
2019-02-19T03:29:31.208Z,3.27
2019-02-19T03:31:59.484Z,5.83
2019-02-19T03:34:27.772Z,2.95
2019-02-19T03:36:56.096Z,3.17
2019-02-19T03:39:24.340Z,3.30
2019-02-19T03:41:52.675Z,2.50
2019-02-19T03:44:20.936Z,5.58
2019-02-19T03:46:49.304Z,2.62
2019-02-19T03:49:17.716Z,3.12
2019-02-19T03:51:45.948Z,2.42
2019-02-19T03:54:14.175Z,4.42
2019-02-19T03:56:42.420Z,2.65
2019-02-19T03:59:10.692Z,3.40
2019-02-19T04:01:38.968Z,2.70
2019-02-19T04:04:07.258Z,2.62
2019-02-19T04:06:35.473Z,3.52
2019-02-19T04:09:04.773Z,4.92
2019-02-19T04:11:33.338Z,7.25
2019-02-19T04:14:01.592Z,6.28
2019-02-19T04:16:29.991Z,5.60
2019-02-19T04:18:58.221Z,9.43
2019-02-19T04:21:26.464Z,8.63
2019-02-19T04:23:54.690Z,7.40
2019-02-19T04:26:22.967Z,6.17
2019-02-19T04:28:51.225Z,9.30
2019-02-19T04:31:19.478Z,7.03
2019-02-19T04:33:47.874Z,10.43
2019-02-19T04:36:16.132Z,9.63
2019-02-19T04:38:44.684Z,8.40
2019-02-19T04:41:12.966Z,9.35
2019-02-19T04:43:41.207Z,9.53
2019-02-19T04:46:09.465Z,6.62
2019-02-19T04:48:37.709Z,10.03
2019-02-19T04:51:05.938Z,11.00
2019-02-19T04:53:34.292Z,15.53
2019-02-19T04:56:02.697Z,9.90
2019-02-19T04:58:31.025Z,7.60
2019-02-19T05:00:59.240Z,8.60
2019-02-19T05:03:27.476Z,7.08
2019-02-19T05:05:55.784Z,10.32
2019-02-19T05:08:24.069Z,10.23
2019-02-19T05:10:52.415Z,8.68
2019-02-19T05:13:21.036Z,12.95
2019-02-19T05:15:49.739Z,12.00
2019-02-19T05:18:18.023Z,14.13
2019-02-19T05:20:46.374Z,16.15
2019-02-19T05:23:14.638Z,14.40
2019-02-19T05:25:42.866Z,12.95
2019-02-19T05:28:11.193Z,15.70
2019-02-19T05:30:39.523Z,19.80
2019-02-19T05:33:07.761Z,15.75
2019-02-19T05:35:35.995Z,22.82
2019-02-19T05:38:04.253Z,17.62
2019-02-19T05:40:32.517Z,13.80
2019-02-19T05:43:01.591Z,17.62
2019-02-19T05:45:30.043Z,19.65
2019-02-19T05:47:58.330Z,21.75
2019-02-19T05:50:26.660Z,20.80
2019-02-19T05:52:55.229Z,15.80
2019-02-19T05:55:23.616Z,23.07
2019-02-19T05:57:51.834Z,18.95
2019-02-19T06:00:20.074Z,15.85
2019-02-19T06:02:48.670Z,14.13
2019-02-19T06:05:16.969Z,19.52
2019-02-19T06:07:45.212Z,15.43
2019-02-19T06:10:13.457Z,16.50
2019-02-19T06:12:41.844Z,13.93
2019-02-19T06:15:12.051Z,13.80
2019-02-19T06:17:41.940Z,19.05
2019-02-19T06:20:10.272Z,14.78
2019-02-19T06:22:38.528Z,9.85
2019-02-19T06:25:08.590Z,10.00
2019-02-19T06:27:36.861Z,9.88
2019-02-19T06:30:11.004Z,20.77
2019-02-19T06:32:39.393Z,13.58
2019-02-19T06:35:08.516Z,15.43
2019-02-19T06:37:36.851Z,14.25
2019-02-19T06:40:11.284Z,11.65
2019-02-19T06:42:39.531Z,11.80
2019-02-19T06:45:07.763Z,9.88
2019-02-19T06:47:36.079Z,9.68
2019-02-19T06:50:05.682Z,6.70
2019-02-19T06:52:33.961Z,7.00
2019-02-19T06:55:02.546Z,7.45
2019-02-19T06:57:30.811Z,5.58
2019-02-19T06:59:59.063Z,6.20
2019-02-19T07:02:40.859Z,6.03
2019-02-19T07:05:10.766Z,6.95
2019-02-19T07:07:39.041Z,8.93
2019-02-19T07:10:08.023Z,9.80
2019-02-19T07:12:36.443Z,8.15
2019-02-19T07:15:07.002Z,12.00
2019-02-19T07:17:35.306Z,10.60
2019-02-19T07:20:04.503Z,10.48
2019-02-19T07:22:32.733Z,15.03
2019-02-19T07:25:00.965Z,10.10
2019-02-19T07:27:29.255Z,10.63
2019-02-19T07:29:57.783Z,10.53
2019-02-19T07:32:26.070Z,14.90
2019-02-19T07:34:54.363Z,18.52
2019-02-19T07:37:22.583Z,7.17
2019-02-19T07:39:51.095Z,11.35
2019-02-19T07:42:19.392Z,9.00
2019-02-19T07:44:47.670Z,13.58
2019-02-19T07:47:24.228Z,11.08
2019-02-19T07:49:45.862Z,7.67
2019-02-19T07:52:14.285Z,8.50
2019-02-19T07:54:42.638Z,9.13
2019-02-19T07:57:10.875Z,6.40
2019-02-19T07:59:39.122Z,8.23
2019-02-19T08:02:07.517Z,7.05
2019-02-19T08:04:35.741Z,8.75
2019-02-19T08:07:04.047Z,5.08
2019-02-19T08:09:32.284Z,6.92
2019-02-19T08:12:00.536Z,5.97
2019-02-19T08:14:28.779Z,7.10
2019-02-19T08:16:57.022Z,8.65
2019-02-19T08:19:25.271Z,5.12
2019-02-19T08:21:53.928Z,6.28
2019-02-19T08:24:22.530Z,4.45
2019-02-19T08:26:50.856Z,4.12
2019-02-19T08:29:19.123Z,2.75
2019-02-19T08:31:47.385Z,6.37
2019-02-19T08:34:15.644Z,6.30
2019-02-19T08:36:43.869Z,6.75
2019-02-19T08:39:12.087Z,7.03
2019-02-19T08:41:40.323Z,4.08
2019-02-19T08:44:08.595Z,14.45
2019-02-19T08:46:37.141Z,5.22
2019-02-19T08:49:05.382Z,4.65
2019-02-19T08:51:33.647Z,4.55
2019-02-19T08:54:01.884Z,4.28
2019-02-19T08:56:30.142Z,3.87
2019-02-19T08:58:58.415Z,6.75
2019-02-19T09:01:26.641Z,7.92
2019-02-19T09:03:54.962Z,6.03
2019-02-19T09:06:23.235Z,5.28
2019-02-19T09:08:51.452Z,9.33
2019-02-19T09:11:19.806Z,3.15
2019-02-19T09:13:48.058Z,3.75
2019-02-19T09:16:16.335Z,9.53
2019-02-19T09:18:44.635Z,7.47
2019-02-19T09:21:12.891Z,5.92
2019-02-19T09:23:42.387Z,7.70
2019-02-19T09:26:10.799Z,7.45
2019-02-19T09:28:39.502Z,7.47
2019-02-19T09:31:07.736Z,8.10
2019-02-19T09:33:36.014Z,7.20
2019-02-19T09:36:04.648Z,6.90
2019-02-19T09:38:33.263Z,11.40
2019-02-19T09:41:01.815Z,7.00
2019-02-19T09:43:35.521Z,7.92
2019-02-19T09:46:00.371Z,10.70
2019-02-19T09:48:28.646Z,10.72
2019-02-19T09:50:56.927Z,12.90
2019-02-19T09:53:25.200Z,15.00
2019-02-19T09:55:53.452Z,9.45
2019-02-19T09:58:21.859Z,11.68
2019-02-19T10:00:50.248Z,9.23
2019-02-19T10:03:18.607Z,8.45
2019-02-19T10:05:48.156Z,10.55
2019-02-19T10:08:16.450Z,8.33
2019-02-19T10:10:44.707Z,12.00
2019-02-19T10:13:12.986Z,8.18
2019-02-19T10:15:41.224Z,8.65
2019-02-19T10:18:10.554Z,7.85
2019-02-19T10:20:39.093Z,11.68
2019-02-19T10:23:07.347Z,14.45
2019-02-19T10:25:35.656Z,9.90
2019-02-19T10:28:03.898Z,9.28
2019-02-19T10:30:32.212Z,7.72
2019-02-19T10:33:00.508Z,6.62
2019-02-19T10:35:28.816Z,5.80
2019-02-19T10:37:57.140Z,10.23
2019-02-19T10:40:25.397Z,13.53
2019-02-19T10:42:53.649Z,13.18
2019-02-19T10:45:24.188Z,7.75
2019-02-19T10:47:52.437Z,9.63
2019-02-19T10:50:20.695Z,13.43
2019-02-19T10:52:48.954Z,7.05
2019-02-19T10:55:17.222Z,10.18
2019-02-19T10:57:45.448Z,11.48
2019-02-19T11:00:20.558Z,8.68
2019-02-19T11:02:48.801Z,7.70
2019-02-19T11:05:17.511Z,5.15
2019-02-19T11:07:45.773Z,12.18
2019-02-19T11:10:14.556Z,12.13
2019-02-19T11:12:42.795Z,9.73
2019-02-19T11:15:13.222Z,7.20
2019-02-19T11:17:41.469Z,8.73
2019-02-19T11:20:12.079Z,10.20
2019-02-19T11:22:40.377Z,6.75
2019-02-19T11:25:10.975Z,11.63
2019-02-19T11:27:39.354Z,10.28
2019-02-19T11:30:10.737Z,11.48
2019-02-19T11:32:39.018Z,4.47
2019-02-19T11:35:08.680Z,7.95
2019-02-19T11:37:37.467Z,9.18
2019-02-19T11:40:09.070Z,9.03
2019-02-19T11:42:37.360Z,9.20
2019-02-19T11:45:14.474Z,11.35
2019-02-19T11:47:42.718Z,6.22
2019-02-19T11:50:12.225Z,10.23
2019-02-19T11:52:40.549Z,6.62
2019-02-19T11:55:14.866Z,9.33
2019-02-19T11:57:43.113Z,11.43
2019-02-19T12:00:37.454Z,4.30
2019-02-19T12:03:05.731Z,4.80
2019-02-19T12:05:33.963Z,6.75
2019-02-19T12:08:02.184Z,7.42
2019-02-19T12:10:30.445Z,7.42
2019-02-19T12:12:58.697Z,4.95
2019-02-19T12:15:34.945Z,7.70
2019-02-19T12:17:57.052Z,5.25
2019-02-19T12:20:25.316Z,4.15
2019-02-19T12:22:53.573Z,7.40
2019-02-19T12:25:21.826Z,8.28
2019-02-19T12:27:50.076Z,5.85
2019-02-19T12:30:19.361Z,5.35
2019-02-19T12:32:47.611Z,2.60
2019-02-19T12:35:15.941Z,3.67
2019-02-19T12:37:44.235Z,7.15
2019-02-19T12:40:13.498Z,5.55
2019-02-19T12:42:41.766Z,4.50
2019-02-19T12:45:14.753Z,4.00
2019-02-19T12:47:42.999Z,5.35
2019-02-19T12:50:16.354Z,12.28
2019-02-19T12:52:44.562Z,3.52
2019-02-19T12:55:12.847Z,4.70
2019-02-19T12:57:41.150Z,3.58
2019-02-19T13:00:16.731Z,8.78
2019-02-19T13:02:45.240Z,4.78
2019-02-19T13:05:14.634Z,9.90
2019-02-19T13:07:42.886Z,5.70
2019-02-19T13:10:12.062Z,3.95
2019-02-19T13:12:40.381Z,5.15
2019-02-19T13:15:23.601Z,8.65
2019-02-19T13:17:51.875Z,4.17
2019-02-19T13:20:20.136Z,4.30
2019-02-19T13:22:48.403Z,5.35
2019-02-19T13:25:16.656Z,3.85
2019-02-19T13:27:44.903Z,4.70
2019-02-19T13:30:18.668Z,6.78
2019-02-19T13:32:46.941Z,3.95
2019-02-19T13:35:15.208Z,3.75
2019-02-19T13:37:43.568Z,4.25
2019-02-19T13:40:16.719Z,6.12
2019-02-19T13:42:44.995Z,5.25
2019-02-19T13:45:14.851Z,3.67
2019-02-19T13:47:43.134Z,4.95
2019-02-19T13:50:17.227Z,4.62
2019-02-19T13:52:47.103Z,6.10
2019-02-19T13:55:17.014Z,4.60
2019-02-19T13:57:45.304Z,5.33
2019-02-19T14:00:15.166Z,4.72
2019-02-19T14:02:43.465Z,4.25
2019-02-19T14:05:12.057Z,5.10
2019-02-19T14:07:40.380Z,3.42
2019-02-19T14:10:10.704Z,5.35
2019-02-19T14:12:38.935Z,3.90
2019-02-19T14:15:11.662Z,2.22
2019-02-19T14:17:39.926Z,2.00
2019-02-19T14:20:09.964Z,4.67
2019-02-19T14:22:39.932Z,3.65
2019-02-19T14:25:10.437Z,5.95
2019-02-19T14:27:42.760Z,4.90
2019-02-19T14:30:16.010Z,3.30
2019-02-19T14:33:01.696Z,3.60
2019-02-19T14:35:34.880Z,2.10
2019-02-19T14:38:04.794Z,2.62
2019-02-19T14:40:50.828Z,5.53
2019-02-19T14:43:36.614Z,6.62
2019-02-19T14:46:13.019Z,2.55
2019-02-19T14:48:43.025Z,4.47
2019-02-19T14:51:15.875Z,4.25
2019-02-19T14:53:58.002Z,3.15
2019-02-19T14:56:27.953Z,2.87
2019-02-19T14:59:10.006Z,5.35
2019-02-19T15:01:39.940Z,7.45
2019-02-19T15:04:22.005Z,3.42
2019-02-19T15:07:00.883Z,4.75
2019-02-19T15:09:37.004Z,2.30
2019-02-19T15:12:06.926Z,3.87
2019-02-19T15:14:49.497Z,4.37
2019-02-19T15:17:35.566Z,4.25
2019-02-19T15:20:05.877Z,4.20
2019-02-19T15:22:35.811Z,4.20
2019-02-19T15:25:10.059Z,3.58
2019-02-19T15:27:51.975Z,4.95
2019-02-19T15:30:21.905Z,5.00
2019-02-19T15:32:51.752Z,4.50
2019-02-19T15:35:27.504Z,6.30
2019-02-19T15:37:57.355Z,3.65
2019-02-19T15:40:46.187Z,4.15
2019-02-19T15:43:34.053Z,3.83
2019-02-19T15:46:20.137Z,4.08
2019-02-19T15:48:50.027Z,3.12
2019-02-19T15:51:31.910Z,4.42
2019-02-19T15:54:19.851Z,4.95
2019-02-19T15:56:58.715Z,3.05
2019-02-19T15:59:44.775Z,4.12
2019-02-19T16:02:17.380Z,4.65
2019-02-19T16:04:47.348Z,4.22
2019-02-19T16:07:32.249Z,5.33
2019-02-19T16:12:36.883Z,3.75
2019-02-19T16:15:18.914Z,3.45
2019-02-19T16:17:48.824Z,6.58
2019-02-19T16:20:27.750Z,5.15
2019-02-19T16:23:03.550Z,3.08
2019-02-19T16:25:36.305Z,2.92
2019-02-19T16:28:08.817Z,4.35
2019-02-19T16:30:41.739Z,7.80
2019-02-19T16:33:17.785Z,3.98
2019-02-19T16:35:47.773Z,3.95
2019-02-19T16:38:20.821Z,3.72
2019-02-19T16:40:51.047Z,5.80
2019-02-19T16:43:29.825Z,5.08
2019-02-19T16:46:05.468Z,2.98
2019-02-19T16:48:51.802Z,5.83
2019-02-19T16:51:21.812Z,2.27
2019-02-19T16:53:51.778Z,6.10
2019-02-19T16:56:33.776Z,2.50
2019-02-19T16:59:19.923Z,2.98
2019-02-19T17:01:52.787Z,3.30
2019-02-19T17:04:25.526Z,3.55
2019-02-19T17:06:55.377Z,5.28
2019-02-19T17:09:28.250Z,4.70
2019-02-19T17:12:13.090Z,5.28
2019-02-19T17:14:57.792Z,3.05
2019-02-19T17:17:36.676Z,3.30
2019-02-19T17:20:17.778Z,2.98
2019-02-19T17:22:40.153Z,2.17
2019-02-19T17:25:27.097Z,3.75
2019-02-19T17:28:12.634Z,1.37
2019-02-19T17:30:45.413Z,2.55
2019-02-19T17:33:15.323Z,1.35
2019-02-19T17:35:45.213Z,2.83
2019-02-19T17:38:15.162Z,3.33
2019-02-19T17:40:47.988Z,2.22
2019-02-19T17:43:29.796Z,1.37
2019-02-19T17:46:15.068Z,1.10
2019-02-19T17:48:50.673Z,3.80
2019-02-19T17:51:36.635Z,1.12
2019-02-19T17:54:23.127Z,1.10
2019-02-19T17:56:55.770Z,1.27
2019-02-19T17:59:34.180Z,1.50
2019-02-19T18:02:06.709Z,0.50
2019-02-19T18:04:51.335Z,1.77
2019-02-19T18:07:37.863Z,0.50
2019-02-19T18:10:15.648Z,1.15
2019-02-19T18:12:51.241Z,1.95
2019-02-19T18:15:33.808Z,1.10
2019-02-19T18:18:19.992Z,1.07
2019-02-19T18:20:48.455Z,1.12
2019-02-19T18:23:17.092Z,0.68
2019-02-19T18:25:45.798Z,1.85
2019-02-19T18:28:14.230Z,0.65
2019-02-19T18:30:42.700Z,0.98
2019-02-19T18:33:11.158Z,1.10
2019-02-19T18:35:39.618Z,2.30
2019-02-19T18:38:08.115Z,2.30
2019-02-19T18:40:36.548Z,1.50
2019-02-19T18:43:05.124Z,2.72
2019-02-19T18:45:33.592Z,2.72
2019-02-19T18:48:02.069Z,1.50
2019-02-19T18:50:30.480Z,1.92
2019-02-19T18:52:58.937Z,1.02
2019-02-19T18:55:27.397Z,0.85
2019-02-19T18:57:55.831Z,1.90
2019-02-19T19:00:24.286Z,1.95
2019-02-19T19:02:52.715Z,1.55
2019-02-19T19:05:21.218Z,1.95
2019-02-19T19:07:49.723Z,2.00
2019-02-19T19:10:18.198Z,3.75
2019-02-19T19:12:46.692Z,1.02
2019-02-19T19:15:15.197Z,2.45
2019-02-19T19:17:43.729Z,1.57
2019-02-19T19:20:12.747Z,2.30
2019-02-19T19:22:41.288Z,0.90
2019-02-19T19:25:09.732Z,2.05
2019-02-19T19:27:38.181Z,1.70
2019-02-19T19:30:12.582Z,2.10
2019-02-19T19:32:41.142Z,0.80
2019-02-19T19:35:11.239Z,2.05
2019-02-19T19:37:39.667Z,1.60
2019-02-19T19:40:11.078Z,2.50
2019-02-19T19:42:39.552Z,2.87
2019-02-19T19:45:10.456Z,2.52
2019-02-19T19:47:38.963Z,1.35
2019-02-19T19:50:11.423Z,2.85
2019-02-19T19:52:39.864Z,1.95
2019-02-19T19:55:10.398Z,3.75
2019-02-19T19:57:39.211Z,2.35
2019-02-19T20:00:12.659Z,3.47
2019-02-19T20:02:41.145Z,2.85
2019-02-19T20:05:10.607Z,2.08
2019-02-19T20:07:39.151Z,2.10
2019-02-19T20:10:12.650Z,3.52
2019-02-19T20:12:41.122Z,2.42
2019-02-19T20:15:11.693Z,1.98
2019-02-19T20:17:40.254Z,1.98
2019-02-19T20:20:11.176Z,2.35
2019-02-19T20:22:39.627Z,3.35
2019-02-19T20:25:12.864Z,2.02
2019-02-19T20:27:41.330Z,2.83
2019-02-19T20:30:12.893Z,5.58
2019-02-19T20:32:41.432Z,0.93
2019-02-19T20:35:10.818Z,1.40
2019-02-19T20:37:39.436Z,1.20
2019-02-19T20:40:12.179Z,2.02
2019-02-19T20:42:40.886Z,2.52
2019-02-19T20:45:11.534Z,1.52
2019-02-19T20:47:40.073Z,2.22
2019-02-19T20:50:11.034Z,3.08
2019-02-19T20:52:39.501Z,2.17
2019-02-19T20:55:11.847Z,1.87
2019-02-19T20:57:40.446Z,2.85
2019-02-19T21:00:15.281Z,2.12
2019-02-19T21:02:43.830Z,1.72
2019-02-19T21:05:12.290Z,1.90
2019-02-19T21:07:40.728Z,1.35
2019-02-19T21:10:15.199Z,2.62
2019-02-19T21:12:43.686Z,2.02
2019-02-19T21:15:13.853Z,3.25
2019-02-19T21:17:42.688Z,3.55
2019-02-19T21:20:12.464Z,1.57
2019-02-19T21:22:40.930Z,2.52
2019-02-19T21:25:10.623Z,1.65
2019-02-19T21:27:39.232Z,0.93
2019-02-19T21:30:15.236Z,2.75
2019-02-19T21:32:43.785Z,2.95
2019-02-19T21:35:12.301Z,1.95
2019-02-19T21:37:40.743Z,2.70
2019-02-19T21:40:11.306Z,3.40
2019-02-19T21:42:39.727Z,2.90
2019-02-19T21:45:10.429Z,3.10
2019-02-19T21:47:39.006Z,5.47
2019-02-19T21:50:10.485Z,4.20
2019-02-19T21:52:39.009Z,2.98
2019-02-19T21:55:11.579Z,3.10
2019-02-19T21:57:40.037Z,3.22
2019-02-19T22:00:19.370Z,1.60
2019-02-19T22:02:47.837Z,2.50
2019-02-19T22:05:16.263Z,2.47
2019-02-19T22:07:44.752Z,2.58
2019-02-19T22:10:14.494Z,3.50
2019-02-19T22:12:42.884Z,3.02
2019-02-19T22:15:12.905Z,3.08
2019-02-19T22:17:41.369Z,3.95
2019-02-19T22:20:14.415Z,1.37
2019-02-19T22:22:42.855Z,2.10
2019-02-19T22:25:11.312Z,1.87
2019-02-19T22:27:39.729Z,3.12
2019-02-19T22:30:09.759Z,2.15
2019-02-19T22:32:38.391Z,1.85
2019-02-19T22:35:07.260Z,5.12
2019-02-19T22:37:35.827Z,2.98
2019-02-19T22:40:05.785Z,7.25
2019-02-19T22:42:34.218Z,1.98
2019-02-19T22:45:02.757Z,2.12
2019-02-19T22:47:31.232Z,3.50
2019-02-19T22:49:59.749Z,3.35
2019-02-19T22:52:28.233Z,1.87
2019-02-19T22:54:58.342Z,2.50
2019-02-19T22:57:26.779Z,1.55
2019-02-19T22:59:55.474Z,2.90
2019-02-19T23:02:23.993Z,4.37
2019-02-19T23:04:52.478Z,3.25
2019-02-19T23:07:21.019Z,3.60
2019-02-19T23:09:49.455Z,1.57
2019-02-19T23:12:17.887Z,2.08
2019-02-19T23:14:46.357Z,1.45
2019-02-19T23:17:15.078Z,2.67
2019-02-19T23:19:43.590Z,3.77
2019-02-19T23:22:12.133Z,1.95
2019-02-19T23:24:40.610Z,4.67
2019-02-19T23:27:09.179Z,4.33
2019-02-19T23:29:37.729Z,1.17
2019-02-19T23:32:06.171Z,5.42
2019-02-19T23:34:34.693Z,6.28
2019-02-19T23:37:03.296Z,3.65
2019-02-19T23:39:31.800Z,4.47
2019-02-19T23:42:00.337Z,2.15
2019-02-19T23:44:28.764Z,3.75
2019-02-19T23:46:57.219Z,1.40
2019-02-19T23:49:25.687Z,3.22
2019-02-19T23:51:54.129Z,3.85
2019-02-19T23:54:22.592Z,5.15
2019-02-19T23:56:51.949Z,6.95
2019-02-19T23:59:20.637Z,4.33
